Terminal Aerodrome Forecast
Issued by NWS Louisville, KY

Home | Current Version | Previous Version | Text Only | Print | Product List | Glossary On
Versions: 1 2 3 4 5 6 7 8 9 10 11 12 13 14 15 16 17
000
FTUS43 KLMK 172320
TAFLEX
TAF
KLEX 172320Z 1800/1824 26012KT P6SM SCT025 BKN030
      TEMPO 1800/1802 BKN025
     FM180200 27009KT P6SM OVC015
      TEMPO 1811/1815 OVC008
     FM182000 26006KT P6SM SCT020 SCT250=

USA.gov is the U.S. government's official web portal to all federal, state and local government web resources and services.